sensor_id;sensor_type;location;lat;lon;timestamp;temperature;humidity
1680;DHT22;838;51.794;12.258;2022-09-09T00:00:13;16.70;91.60
1680;DHT22;838;51.794;12.258;2022-09-09T00:02:41;16.60;91.00
1680;DHT22;838;51.794;12.258;2022-09-09T00:05:31;16.70;90.80
1680;DHT22;838;51.794;12.258;2022-09-09T00:08:02;16.70;90.70
1680;DHT22;838;51.794;12.258;2022-09-09T00:10:32;16.70;90.60
1680;DHT22;838;51.794;12.258;2022-09-09T00:15:45;16.80;89.60
1680;DHT22;838;51.794;12.258;2022-09-09T00:18:32;16.90;88.90
1680;DHT22;838;51.794;12.258;2022-09-09T00:21:08;16.80;88.10
1680;DHT22;838;51.794;12.258;2022-09-09T00:23:44;16.80;87.50
1680;DHT22;838;51.794;12.258;2022-09-09T00:28:44;16.60;88.20
1680;DHT22;838;51.794;12.258;2022-09-09T00:31:15;16.60;88.40
1680;DHT22;838;51.794;12.258;2022-09-09T00:33:43;16.40;88.30
1680;DHT22;838;51.794;12.258;2022-09-09T00:36:17;16.30;89.70
1680;DHT22;838;51.794;12.258;2022-09-09T00:38:49;16.20;90.30
1680;DHT22;838;51.794;12.258;2022-09-09T00:44:35;16.20;90.20
1680;DHT22;838;51.794;12.258;2022-09-09T00:50:26;16.40;90.00
1680;DHT22;838;51.794;12.258;2022-09-09T00:55:42;16.50;86.70
1680;DHT22;838;51.794;12.258;2022-09-09T00:58:09;16.50;87.60
1680;DHT22;838;51.794;12.258;2022-09-09T01:01:02;16.50;86.90
1680;DHT22;838;51.794;12.258;2022-09-09T01:08:48;16.20;88.00
1680;DHT22;838;51.794;12.258;2022-09-09T01:11:37;16.20;88.40
1680;DHT22;838;51.794;12.258;2022-09-09T01:17:46;16.00;89.80
1680;DHT22;838;51.794;12.258;2022-09-09T01:25:27;16.10;89.40
1680;DHT22;838;51.794;12.258;2022-09-09T01:27:56;16.00;89.90
1680;DHT22;838;51.794;12.258;2022-09-09T01:30:23;15.90;90.00
1680;DHT22;838;51.794;12.258;2022-09-09T01:32:53;15.90;90.00
1680;DHT22;838;51.794;12.258;2022-09-09T01:37:56;15.80;90.60
1680;DHT22;838;51.794;12.258;2022-09-09T01:40:21;15.70;91.10
1680;DHT22;838;51.794;12.258;2022-09-09T01:42:47;15.80;90.50
1680;DHT22;838;51.794;12.258;2022-09-09T01:45:13;15.70;91.10
1680;DHT22;838;51.794;12.258;2022-09-09T01:47:39;15.70;90.70
1680;DHT22;838;51.794;12.258;2022-09-09T01:50:07;15.60;91.00
1680;DHT22;838;51.794;12.258;2022-09-09T01:52:36;15.60;91.20
1680;DHT22;838;51.794;12.258;2022-09-09T01:55:02;15.60;91.40
1680;DHT22;838;51.794;12.258;2022-09-09T01:57:33;15.50;91.70
1680;DHT22;838;51.794;12.258;2022-09-09T02:11:13;15.30;92.30
1680;DHT22;838;51.794;12.258;2022-09-09T02:13:39;15.50;92.10
1680;DHT22;838;51.794;12.258;2022-09-09T02:21:25;15.30;91.40
1680;DHT22;838;51.794;12.258;2022-09-09T02:23:55;15.20;91.40
1680;DHT22;838;51.794;12.258;2022-09-09T02:26:24;15.30;91.90
1680;DHT22;838;51.794;12.258;2022-09-09T02:28:53;15.40;91.20
1680;DHT22;838;51.794;12.258;2022-09-09T02:31:22;15.40;90.70
1680;DHT22;838;51.794;12.258;2022-09-09T02:33:57;15.30;90.80
1680;DHT22;838;51.794;12.258;2022-09-09T02:36:27;15.40;90.90
1680;DHT22;838;51.794;12.258;2022-09-09T02:38:59;15.50;90.60
1680;DHT22;838;51.794;12.258;2022-09-09T02:41:31;15.50;90.30
1680;DHT22;838;51.794;12.258;2022-09-09T02:43:57;15.60;90.20
1680;DHT22;838;51.794;12.258;2022-09-09T02:52:17;15.30;90.40
1680;DHT22;838;51.794;12.258;2022-09-09T02:54:44;15.40;90.00
1680;DHT22;838;51.794;12.258;2022-09-09T02:57:14;15.20;90.30
1680;DHT22;838;51.794;12.258;2022-09-09T02:59:43;14.90;91.20
1680;DHT22;838;51.794;12.258;2022-09-09T03:02:09;14.70;92.10
1680;DHT22;838;51.794;12.258;2022-09-09T03:04:37;14.60;92.70
1680;DHT22;838;51.794;12.258;2022-09-09T03:07:03;14.50;93.20
1680;DHT22;838;51.794;12.258;2022-09-09T03:09:29;14.60;93.50
1680;DHT22;838;51.794;12.258;2022-09-09T03:11:56;14.70;93.30
1680;DHT22;838;51.794;12.258;2022-09-09T03:14:22;14.70;93.00
1680;DHT22;838;51.794;12.258;2022-09-09T03:16:51;14.70;93.00
1680;DHT22;838;51.794;12.258;2022-09-09T03:19:17;14.70;93.10
1680;DHT22;838;51.794;12.258;2022-09-09T03:21:44;14.70;92.90
1680;DHT22;838;51.794;12.258;2022-09-09T03:24:11;14.60;93.10
1680;DHT22;838;51.794;12.258;2022-09-09T03:26:36;14.60;93.30
1680;DHT22;838;51.794;12.258;2022-09-09T03:29:06;14.50;93.40
1680;DHT22;838;51.794;12.258;2022-09-09T03:31:33;14.50;93.70
1680;DHT22;838;51.794;12.258;2022-09-09T03:33:59;14.50;94.00
1680;DHT22;838;51.794;12.258;2022-09-09T03:36:25;14.50;94.40
1680;DHT22;838;51.794;12.258;2022-09-09T03:38:52;14.60;93.80
1680;DHT22;838;51.794;12.258;2022-09-09T03:41:19;14.60;93.70
1680;DHT22;838;51.794;12.258;2022-09-09T03:43:52;14.50;93.60
1680;DHT22;838;51.794;12.258;2022-09-09T03:46:18;14.40;94.00
1680;DHT22;838;51.794;12.258;2022-09-09T03:48:44;14.40;94.30
1680;DHT22;838;51.794;12.258;2022-09-09T03:51:10;14.40;94.70
1680;DHT22;838;51.794;12.258;2022-09-09T03:53:36;14.50;94.40
1680;DHT22;838;51.794;12.258;2022-09-09T03:56:04;14.50;94.00
1680;DHT22;838;51.794;12.258;2022-09-09T03:58:33;14.60;93.90
1680;DHT22;838;51.794;12.258;2022-09-09T04:01:00;14.70;93.30
1680;DHT22;838;51.794;12.258;2022-09-09T04:03:26;15.00;93.30
1680;DHT22;838;51.794;12.258;2022-09-09T04:05:52;15.10;91.70
1680;DHT22;838;51.794;12.258;2022-09-09T04:08:19;15.10;91.60
1680;DHT22;838;51.794;12.258;2022-09-09T04:10:49;15.30;91.20
1680;DHT22;838;51.794;12.258;2022-09-09T04:13:15;15.50;90.00
1680;DHT22;838;51.794;12.258;2022-09-09T04:15:44;15.60;87.10
1680;DHT22;838;51.794;12.258;2022-09-09T04:18:10;15.60;85.10
1680;DHT22;838;51.794;12.258;2022-09-09T04:20:37;15.70;84.80
1680;DHT22;838;51.794;12.258;2022-09-09T04:23:05;15.70;84.60
1680;DHT22;838;51.794;12.258;2022-09-09T04:25:31;15.70;83.20
1680;DHT22;838;51.794;12.258;2022-09-09T04:27:57;15.90;82.90
1680;DHT22;838;51.794;12.258;2022-09-09T04:30:24;15.80;81.30
1680;DHT22;838;51.794;12.258;2022-09-09T04:32:50;15.60;83.60
1680;DHT22;838;51.794;12.258;2022-09-09T04:35:16;15.40;84.70
1680;DHT22;838;51.794;12.258;2022-09-09T04:37:42;15.10;87.90
1680;DHT22;838;51.794;12.258;2022-09-09T04:40:08;15.10;88.20
1680;DHT22;838;51.794;12.258;2022-09-09T04:42:38;15.20;87.20
1680;DHT22;838;51.794;12.258;2022-09-09T04:45:05;15.40;86.30
1680;DHT22;838;51.794;12.258;2022-09-09T04:47:32;15.30;86.50
1680;DHT22;838;51.794;12.258;2022-09-09T04:49:58;15.00;88.60
1680;DHT22;838;51.794;12.258;2022-09-09T04:52:23;14.70;90.30
1680;DHT22;838;51.794;12.258;2022-09-09T04:54:49;14.70;90.90
1680;DHT22;838;51.794;12.258;2022-09-09T04:57:15;14.60;91.40
1680;DHT22;838;51.794;12.258;2022-09-09T04:59:40;14.60;92.00
1680;DHT22;838;51.794;12.258;2022-09-09T05:02:06;14.60;92.00
1680;DHT22;838;51.794;12.258;2022-09-09T05:04:32;14.70;92.90
1680;DHT22;838;51.794;12.258;2022-09-09T05:06:58;15.10;91.80
1680;DHT22;838;51.794;12.258;2022-09-09T05:09:24;15.40;91.40
1680;DHT22;838;51.794;12.258;2022-09-09T05:11:50;15.70;90.00
1680;DHT22;838;51.794;12.258;2022-09-09T05:14:16;16.00;88.20
1680;DHT22;838;51.794;12.258;2022-09-09T05:16:44;16.30;85.70
1680;DHT22;838;51.794;12.258;2022-09-09T05:19:10;16.60;84.50
1680;DHT22;838;51.794;12.258;2022-09-09T05:21:36;16.60;82.00
1680;DHT22;838;51.794;12.258;2022-09-09T05:24:02;16.50;84.00
1680;DHT22;838;51.794;12.258;2022-09-09T05:26:28;16.20;86.00
1680;DHT22;838;51.794;12.258;2022-09-09T05:28:57;15.90;90.00
1680;DHT22;838;51.794;12.258;2022-09-09T05:31:24;15.80;90.90
1680;DHT22;838;51.794;12.258;2022-09-09T05:33:53;15.80;92.10
1680;DHT22;838;51.794;12.258;2022-09-09T05:36:21;15.80;91.50
1680;DHT22;838;51.794;12.258;2022-09-09T05:38:47;15.80;91.90
1680;DHT22;838;51.794;12.258;2022-09-09T05:41:14;15.70;91.90
1680;DHT22;838;51.794;12.258;2022-09-09T05:43:43;15.70;92.10
1680;DHT22;838;51.794;12.258;2022-09-09T05:46:23;15.80;92.20
1680;DHT22;838;51.794;12.258;2022-09-09T05:48:50;15.90;91.90
1680;DHT22;838;51.794;12.258;2022-09-09T05:51:27;15.90;91.60
1680;DHT22;838;51.794;12.258;2022-09-09T05:53:55;15.90;92.00
1680;DHT22;838;51.794;12.258;2022-09-09T05:56:25;16.00;92.20
1680;DHT22;838;51.794;12.258;2022-09-09T05:58:52;16.30;91.50
1680;DHT22;838;51.794;12.258;2022-09-09T06:01:24;16.50;91.20
1680;DHT22;838;51.794;12.258;2022-09-09T06:03:52;16.60;89.80
1680;DHT22;838;51.794;12.258;2022-09-09T06:06:20;16.50;90.20
1680;DHT22;838;51.794;12.258;2022-09-09T06:08:47;16.50;90.40
1680;DHT22;838;51.794;12.258;2022-09-09T06:13:39;16.70;90.80
1680;DHT22;838;51.794;12.258;2022-09-09T06:16:15;16.80;90.00
1680;DHT22;838;51.794;12.258;2022-09-09T06:18:42;17.20;90.00
1680;DHT22;838;51.794;12.258;2022-09-09T06:21:18;17.60;86.20
1680;DHT22;838;51.794;12.258;2022-09-09T06:23:44;17.80;81.40
1680;DHT22;838;51.794;12.258;2022-09-09T06:26:25;18.00;78.20
1680;DHT22;838;51.794;12.258;2022-09-09T06:28:52;18.00;77.30
1680;DHT22;838;51.794;12.258;2022-09-09T06:31:20;18.10;76.90
1680;DHT22;838;51.794;12.258;2022-09-09T06:33:47;17.90;77.70
1680;DHT22;838;51.794;12.258;2022-09-09T06:36:20;17.90;79.20
1680;DHT22;838;51.794;12.258;2022-09-09T06:38:46;17.90;77.70
1680;DHT22;838;51.794;12.258;2022-09-09T06:41:14;17.80;79.40
1680;DHT22;838;51.794;12.258;2022-09-09T06:43:40;17.90;78.90
1680;DHT22;838;51.794;12.258;2022-09-09T06:46:10;18.10;77.90
1680;DHT22;838;51.794;12.258;2022-09-09T06:48:36;18.20;77.80
1680;DHT22;838;51.794;12.258;2022-09-09T06:51:06;18.20;76.60
1680;DHT22;838;51.794;12.258;2022-09-09T06:53:35;18.00;77.00
1680;DHT22;838;51.794;12.258;2022-09-09T06:56:24;18.00;78.90
1680;DHT22;838;51.794;12.258;2022-09-09T06:58:49;17.80;81.20
1680;DHT22;838;51.794;12.258;2022-09-09T07:01:23;17.70;82.40
1680;DHT22;838;51.794;12.258;2022-09-09T07:03:52;17.70;82.60
1680;DHT22;838;51.794;12.258;2022-09-09T07:06:24;17.80;82.90
1680;DHT22;838;51.794;12.258;2022-09-09T07:09:04;17.90;81.90
1680;DHT22;838;51.794;12.258;2022-09-09T07:11:32;18.00;82.00
1680;DHT22;838;51.794;12.258;2022-09-09T07:13:59;18.20;80.20
1680;DHT22;838;51.794;12.258;2022-09-09T07:16:25;18.40;81.70
1680;DHT22;838;51.794;12.258;2022-09-09T07:18:53;18.60;76.60
1680;DHT22;838;51.794;12.258;2022-09-09T07:21:20;18.80;77.00
1680;DHT22;838;51.794;12.258;2022-09-09T07:23:47;18.80;77.40
1680;DHT22;838;51.794;12.258;2022-09-09T07:26:17;18.90;77.50
1680;DHT22;838;51.794;12.258;2022-09-09T07:28:45;18.90;76.10
1680;DHT22;838;51.794;12.258;2022-09-09T07:31:16;19.00;75.90
1680;DHT22;838;51.794;12.258;2022-09-09T07:33:43;19.20;76.00
1680;DHT22;838;51.794;12.258;2022-09-09T07:36:29;19.40;74.30
1680;DHT22;838;51.794;12.258;2022-09-09T07:38:58;19.70;68.50
1680;DHT22;838;51.794;12.258;2022-09-09T07:41:29;20.00;69.90
1680;DHT22;838;51.794;12.258;2022-09-09T07:43:55;20.30;63.10
1680;DHT22;838;51.794;12.258;2022-09-09T07:46:24;20.60;57.60
1680;DHT22;838;51.794;12.258;2022-09-09T07:48:52;20.60;56.30
1680;DHT22;838;51.794;12.258;2022-09-09T07:51:28;20.60;56.40
1680;DHT22;838;51.794;12.258;2022-09-09T07:53:56;20.70;59.80
1680;DHT22;838;51.794;12.258;2022-09-09T07:56:26;20.90;58.10
1680;DHT22;838;51.794;12.258;2022-09-09T07:58:57;21.10;54.80
1680;DHT22;838;51.794;12.258;2022-09-09T08:01:30;21.10;55.80
1680;DHT22;838;51.794;12.258;2022-09-09T08:04:01;21.20;53.10
1680;DHT22;838;51.794;12.258;2022-09-09T08:06:39;21.10;53.10
1680;DHT22;838;51.794;12.258;2022-09-09T08:09:06;21.10;52.60
1680;DHT22;838;51.794;12.258;2022-09-09T08:11:32;21.20;52.70
1680;DHT22;838;51.794;12.258;2022-09-09T08:13:58;21.30;46.10
1680;DHT22;838;51.794;12.258;2022-09-09T08:16:27;21.50;46.90
1680;DHT22;838;51.794;12.258;2022-09-09T08:18:53;21.60;46.80
1680;DHT22;838;51.794;12.258;2022-09-09T08:21:24;21.70;40.80
1680;DHT22;838;51.794;12.258;2022-09-09T08:23:52;21.50;43.70
1680;DHT22;838;51.794;12.258;2022-09-09T08:26:21;21.10;42.20
1680;DHT22;838;51.794;12.258;2022-09-09T08:28:48;20.70;42.60
1680;DHT22;838;51.794;12.258;2022-09-09T08:33:45;21.00;48.50
1680;DHT22;838;51.794;12.258;2022-09-09T08:36:15;21.10;46.90
1680;DHT22;838;51.794;12.258;2022-09-09T08:38:42;21.30;44.50
1680;DHT22;838;51.794;12.258;2022-09-09T08:41:19;21.60;39.70
1680;DHT22;838;51.794;12.258;2022-09-09T08:43:48;21.70;41.80
1680;DHT22;838;51.794;12.258;2022-09-09T08:46:27;21.90;35.80
1680;DHT22;838;51.794;12.258;2022-09-09T08:49:13;22.00;36.20
1680;DHT22;838;51.794;12.258;2022-09-09T08:51:42;22.10;37.00
1680;DHT22;838;51.794;12.258;2022-09-09T08:54:08;22.50;37.20
1680;DHT22;838;51.794;12.258;2022-09-09T08:56:36;22.90;27.00
1680;DHT22;838;51.794;12.258;2022-09-09T08:59:03;22.80;26.80
1680;DHT22;838;51.794;12.258;2022-09-09T09:09:42;22.40;30.20
1680;DHT22;838;51.794;12.258;2022-09-09T09:12:23;25.40;5.20
1680;DHT22;838;51.794;12.258;2022-09-09T09:14:50;25.50;5.80
1680;DHT22;838;51.794;12.258;2022-09-09T09:17:20;26.70;1.00
1680;DHT22;838;51.794;12.258;2022-09-09T09:19:48;27.80;1.00
1680;DHT22;838;51.794;12.258;2022-09-09T09:27:34;27.90;1.00
1680;DHT22;838;51.794;12.258;2022-09-09T09:30:12;27.70;1.00
1680;DHT22;838;51.794;12.258;2022-09-09T09:32:42;27.30;1.00
1680;DHT22;838;51.794;12.258;2022-09-09T09:35:12;26.80;1.00
1680;DHT22;838;51.794;12.258;2022-09-09T09:37:40;26.10;1.00
1680;DHT22;838;51.794;12.258;2022-09-09T09:40:17;25.50;1.00
1680;DHT22;838;51.794;12.258;2022-09-09T09:42:59;25.10;1.00
1680;DHT22;838;51.794;12.258;2022-09-09T09:48:10;23.60;8.50
1680;DHT22;838;51.794;12.258;2022-09-09T09:51:00;23.00;16.80
1680;DHT22;838;51.794;12.258;2022-09-09T09:53:30;22.70;20.60
1680;DHT22;838;51.794;12.258;2022-09-09T09:56:08;22.90;18.90
1680;DHT22;838;51.794;12.258;2022-09-09T10:01:24;23.20;14.90
1680;DHT22;838;51.794;12.258;2022-09-09T10:03:52;23.50;18.10
1680;DHT22;838;51.794;12.258;2022-09-09T10:06:33;23.70;11.30
1680;DHT22;838;51.794;12.258;2022-09-09T10:08:59;23.90;9.70
1680;DHT22;838;51.794;12.258;2022-09-09T10:14:21;24.20;5.90
1680;DHT22;838;51.794;12.258;2022-09-09T10:17:14;24.70;4.20
1680;DHT22;838;51.794;12.258;2022-09-09T10:22:27;25.20;1.00
1680;DHT22;838;51.794;12.258;2022-09-09T10:25:00;25.20;1.00
1680;DHT22;838;51.794;12.258;2022-09-09T10:30:15;25.20;1.00
1680;DHT22;838;51.794;12.258;2022-09-09T10:33:07;25.00;1.00
1680;DHT22;838;51.794;12.258;2022-09-09T10:41:36;25.20;1.00
1680;DHT22;838;51.794;12.258;2022-09-09T10:52:41;25.80;1.00
1680;DHT22;838;51.794;12.258;2022-09-09T10:55:23;26.00;1.00
1680;DHT22;838;51.794;12.258;2022-09-09T10:57:58;26.00;1.00
1680;DHT22;838;51.794;12.258;2022-09-09T11:03:04;25.30;1.00
1680;DHT22;838;51.794;12.258;2022-09-09T11:05:45;25.30;1.00
1680;DHT22;838;51.794;12.258;2022-09-09T11:08:24;25.20;1.00
1680;DHT22;838;51.794;12.258;2022-09-09T11:13:44;24.80;1.00
1680;DHT22;838;51.794;12.258;2022-09-09T11:16:38;24.80;1.00
1680;DHT22;838;51.794;12.258;2022-09-09T11:21:55;24.70;1.60
1680;DHT22;838;51.794;12.258;2022-09-09T11:30:18;23.70;11.10
1680;DHT22;838;51.794;12.258;2022-09-09T11:35:45;23.50;13.70
1680;DHT22;838;51.794;12.258;2022-09-09T11:38:31;23.50;18.50
1680;DHT22;838;51.794;12.258;2022-09-09T11:41:03;23.20;19.80
1680;DHT22;838;51.794;12.258;2022-09-09T11:43:44;22.90;26.70
1680;DHT22;838;51.794;12.258;2022-09-09T11:46:10;22.80;29.40
1680;DHT22;838;51.794;12.258;2022-09-09T11:48:38;22.70;32.10
1680;DHT22;838;51.794;12.258;2022-09-09T11:51:10;23.00;34.90
1680;DHT22;838;51.794;12.258;2022-09-09T11:54:44;23.30;40.10
1680;DHT22;838;51.794;12.258;2022-09-09T11:57:05;23.80;21.20
1680;DHT22;838;51.794;12.258;2022-09-09T11:59:51;24.00;18.60
1680;DHT22;838;51.794;12.258;2022-09-09T12:02:28;24.40;5.80
1680;DHT22;838;51.794;12.258;2022-09-09T12:05:08;24.80;1.00
1680;DHT22;838;51.794;12.258;2022-09-09T12:07:41;25.20;1.00
1680;DHT22;838;51.794;12.258;2022-09-09T12:10:30;25.40;1.00
1680;DHT22;838;51.794;12.258;2022-09-09T12:13:16;25.30;1.00
1680;DHT22;838;51.794;12.258;2022-09-09T12:16:26;25.30;1.00
1680;DHT22;838;51.794;12.258;2022-09-09T12:19:13;25.20;1.00
1680;DHT22;838;51.794;12.258;2022-09-09T12:21:46;25.30;1.00
1680;DHT22;838;51.794;12.258;2022-09-09T12:24:23;25.50;1.00
1680;DHT22;838;51.794;12.258;2022-09-09T12:27:05;25.40;1.00
1680;DHT22;838;51.794;12.258;2022-09-09T12:29:57;25.20;2.30
1680;DHT22;838;51.794;12.258;2022-09-09T12:32:27;25.00;1.00
1680;DHT22;838;51.794;12.258;2022-09-09T12:35:03;24.70;1.00
1680;DHT22;838;51.794;12.258;2022-09-09T12:37:40;24.50;1.00
1680;DHT22;838;51.794;12.258;2022-09-09T12:40:21;24.00;12.90
1680;DHT22;838;51.794;12.258;2022-09-09T12:42:47;23.50;8.70
1680;DHT22;838;51.794;12.258;2022-09-09T12:45:22;23.40;14.50
1680;DHT22;838;51.794;12.258;2022-09-09T12:48:01;23.60;14.60
1680;DHT22;838;51.794;12.258;2022-09-09T12:50:57;24.00;11.70
1680;DHT22;838;51.794;12.258;2022-09-09T12:53:27;24.20;13.10
1680;DHT22;838;51.794;12.258;2022-09-09T12:55:56;24.60;13.50
1680;DHT22;838;51.794;12.258;2022-09-09T12:58:22;24.40;8.50
1680;DHT22;838;51.794;12.258;2022-09-09T13:00:52;24.50;10.10
1680;DHT22;838;51.794;12.258;2022-09-09T13:03:21;24.50;9.40
1680;DHT22;838;51.794;12.258;2022-09-09T13:05:48;24.80;6.30
1680;DHT22;838;51.794;12.258;2022-09-09T13:08:16;25.10;1.00
1680;DHT22;838;51.794;12.258;2022-09-09T13:11:01;25.20;1.00
1680;DHT22;838;51.794;12.258;2022-09-09T13:13:29;25.30;1.00
1680;DHT22;838;51.794;12.258;2022-09-09T13:15:58;25.30;1.00
1680;DHT22;838;51.794;12.258;2022-09-09T13:18:31;25.40;1.00
1680;DHT22;838;51.794;12.258;2022-09-09T13:20:57;25.40;1.00
1680;DHT22;838;51.794;12.258;2022-09-09T13:23:27;25.30;1.00
1680;DHT22;838;51.794;12.258;2022-09-09T13:26:24;25.50;1.00
1680;DHT22;838;51.794;12.258;2022-09-09T13:28:52;25.60;1.00
1680;DHT22;838;51.794;12.258;2022-09-09T13:31:32;25.80;1.00
1680;DHT22;838;51.794;12.258;2022-09-09T13:33:58;25.70;1.00
1680;DHT22;838;51.794;12.258;2022-09-09T13:36:32;25.60;1.00
1680;DHT22;838;51.794;12.258;2022-09-09T13:38:59;25.40;1.00
1680;DHT22;838;51.794;12.258;2022-09-09T13:41:41;25.60;1.00
1680;DHT22;838;51.794;12.258;2022-09-09T13:44:18;25.50;1.00
1680;DHT22;838;51.794;12.258;2022-09-09T13:46:47;25.30;1.00
1680;DHT22;838;51.794;12.258;2022-09-09T13:51:48;25.10;1.00
1680;DHT22;838;51.794;12.258;2022-09-09T13:54:21;25.10;1.00
1680;DHT22;838;51.794;12.258;2022-09-09T13:56:48;25.10;1.00
1680;DHT22;838;51.794;12.258;2022-09-09T13:59:19;25.20;1.00
1680;DHT22;838;51.794;12.258;2022-09-09T14:01:46;25.20;1.00
1680;DHT22;838;51.794;12.258;2022-09-09T14:04:13;25.50;1.00
1680;DHT22;838;51.794;12.258;2022-09-09T14:06:41;25.60;1.00
1680;DHT22;838;51.794;12.258;2022-09-09T14:11:40;25.40;1.00
1680;DHT22;838;51.794;12.258;2022-09-09T14:14:07;25.40;1.00
1680;DHT22;838;51.794;12.258;2022-09-09T14:16:33;25.30;1.00
1680;DHT22;838;51.794;12.258;2022-09-09T14:19:02;25.30;1.00
1680;DHT22;838;51.794;12.258;2022-09-09T14:21:27;25.30;1.00
1680;DHT22;838;51.794;12.258;2022-09-09T14:23:57;25.20;1.00
1680;DHT22;838;51.794;12.258;2022-09-09T14:26:24;25.10;1.00
1680;DHT22;838;51.794;12.258;2022-09-09T14:28:56;25.30;1.00
1680;DHT22;838;51.794;12.258;2022-09-09T14:31:23;25.30;1.00
1680;DHT22;838;51.794;12.258;2022-09-09T14:33:49;25.60;1.00
1680;DHT22;838;51.794;12.258;2022-09-09T14:36:20;25.50;1.00
1680;DHT22;838;51.794;12.258;2022-09-09T14:38:46;25.40;1.00
1680;DHT22;838;51.794;12.258;2022-09-09T14:41:14;25.40;1.00
1680;DHT22;838;51.794;12.258;2022-09-09T14:43:44;25.60;1.00
1680;DHT22;838;51.794;12.258;2022-09-09T14:46:15;26.00;1.00
1680;DHT22;838;51.794;12.258;2022-09-09T14:48:40;26.10;1.00
1680;DHT22;838;51.794;12.258;2022-09-09T14:51:08;26.10;1.00
1680;DHT22;838;51.794;12.258;2022-09-09T14:53:34;26.10;1.00
1680;DHT22;838;51.794;12.258;2022-09-09T14:56:05;26.10;1.00
1680;DHT22;838;51.794;12.258;2022-09-09T14:58:31;26.10;1.00
1680;DHT22;838;51.794;12.258;2022-09-09T15:01:03;26.20;1.00
1680;DHT22;838;51.794;12.258;2022-09-09T15:03:29;26.20;1.00
1680;DHT22;838;51.794;12.258;2022-09-09T15:06:06;26.30;1.00
1680;DHT22;838;51.794;12.258;2022-09-09T15:08:34;26.50;1.00
1680;DHT22;838;51.794;12.258;2022-09-09T15:11:04;26.40;1.00
1680;DHT22;838;51.794;12.258;2022-09-09T15:13:30;26.00;1.00
1680;DHT22;838;51.794;12.258;2022-09-09T15:16:07;25.70;1.00
1680;DHT22;838;51.794;12.258;2022-09-09T15:18:33;25.60;1.00
1680;DHT22;838;51.794;12.258;2022-09-09T15:21:04;25.60;1.00
1680;DHT22;838;51.794;12.258;2022-09-09T15:23:35;25.40;1.00
1680;DHT22;838;51.794;12.258;2022-09-09T15:26:02;25.10;1.00
1680;DHT22;838;51.794;12.258;2022-09-09T15:31:06;24.90;1.00
1680;DHT22;838;51.794;12.258;2022-09-09T15:33:33;25.10;1.00
1680;DHT22;838;51.794;12.258;2022-09-09T15:35:59;25.10;1.00
1680;DHT22;838;51.794;12.258;2022-09-09T15:38:31;25.10;1.00
1680;DHT22;838;51.794;12.258;2022-09-09T15:40:56;24.90;1.00
1680;DHT22;838;51.794;12.258;2022-09-09T15:43:22;24.90;1.00
1680;DHT22;838;51.794;12.258;2022-09-09T15:45:53;24.90;1.00
1680;DHT22;838;51.794;12.258;2022-09-09T15:48:27;25.00;1.00
1680;DHT22;838;51.794;12.258;2022-09-09T15:51:02;25.20;1.00
1680;DHT22;838;51.794;12.258;2022-09-09T15:53:30;25.10;1.00
1680;DHT22;838;51.794;12.258;2022-09-09T15:55:59;25.10;1.00
1680;DHT22;838;51.794;12.258;2022-09-09T15:58:31;25.30;1.00
1680;DHT22;838;51.794;12.258;2022-09-09T16:01:07;25.30;1.00
1680;DHT22;838;51.794;12.258;2022-09-09T16:03:39;25.30;1.00
1680;DHT22;838;51.794;12.258;2022-09-09T16:06:07;25.30;1.00
1680;DHT22;838;51.794;12.258;2022-09-09T16:08:37;25.20;1.00
1680;DHT22;838;51.794;12.258;2022-09-09T16:11:13;25.20;1.00
1680;DHT22;838;51.794;12.258;2022-09-09T16:13:48;25.10;1.00
1680;DHT22;838;51.794;12.258;2022-09-09T16:16:15;25.10;1.00
1680;DHT22;838;51.794;12.258;2022-09-09T16:18:44;24.80;1.00
1680;DHT22;838;51.794;12.258;2022-09-09T16:21:16;24.60;1.00
1680;DHT22;838;51.794;12.258;2022-09-09T16:23:44;24.40;1.00
1680;DHT22;838;51.794;12.258;2022-09-09T16:26:14;24.30;1.00
1680;DHT22;838;51.794;12.258;2022-09-09T16:28:40;24.40;1.00
1680;DHT22;838;51.794;12.258;2022-09-09T16:31:08;24.70;1.00
1680;DHT22;838;51.794;12.258;2022-09-09T16:33:39;24.90;1.00
1680;DHT22;838;51.794;12.258;2022-09-09T16:36:06;25.00;1.00
1680;DHT22;838;51.794;12.258;2022-09-09T16:38:32;25.10;1.00
1680;DHT22;838;51.794;12.258;2022-09-09T16:41:02;25.10;1.00
1680;DHT22;838;51.794;12.258;2022-09-09T16:43:30;25.10;1.00
1680;DHT22;838;51.794;12.258;2022-09-09T16:45:56;24.90;1.00
1680;DHT22;838;51.794;12.258;2022-09-09T16:48:21;24.90;1.00
1680;DHT22;838;51.794;12.258;2022-09-09T16:50:47;24.80;1.00
1680;DHT22;838;51.794;12.258;2022-09-09T16:53:14;24.90;1.00
1680;DHT22;838;51.794;12.258;2022-09-09T16:55:41;25.00;1.00
1680;DHT22;838;51.794;12.258;2022-09-09T16:58:10;25.10;1.00
1680;DHT22;838;51.794;12.258;2022-09-09T17:00:36;25.10;1.00
1680;DHT22;838;51.794;12.258;2022-09-09T17:03:01;25.10;1.00
1680;DHT22;838;51.794;12.258;2022-09-09T17:05:28;24.90;1.00
1680;DHT22;838;51.794;12.258;2022-09-09T17:07:54;24.80;1.00
1680;DHT22;838;51.794;12.258;2022-09-09T17:10:23;24.60;1.00
1680;DHT22;838;51.794;12.258;2022-09-09T17:12:49;24.50;1.00
1680;DHT22;838;51.794;12.258;2022-09-09T17:15:15;24.40;1.00
1680;DHT22;838;51.794;12.258;2022-09-09T17:17:40;24.20;1.00
1680;DHT22;838;51.794;12.258;2022-09-09T17:20:10;24.10;1.00
1680;DHT22;838;51.794;12.258;2022-09-09T17:22:36;23.80;1.00
1680;DHT22;838;51.794;12.258;2022-09-09T17:25:02;23.50;1.00
1680;DHT22;838;51.794;12.258;2022-09-09T17:27:28;23.30;1.00
1680;DHT22;838;51.794;12.258;2022-09-09T17:29:57;23.00;1.00
1680;DHT22;838;51.794;12.258;2022-09-09T17:32:23;22.80;1.00
1680;DHT22;838;51.794;12.258;2022-09-09T17:34:50;22.70;1.00
1680;DHT22;838;51.794;12.258;2022-09-09T17:37:17;22.50;1.00
1680;DHT22;838;51.794;12.258;2022-09-09T17:39:43;22.10;1.00
1680;DHT22;838;51.794;12.258;2022-09-09T17:42:08;22.00;1.00
1680;DHT22;838;51.794;12.258;2022-09-09T17:44:34;22.00;1.00
1680;DHT22;838;51.794;12.258;2022-09-09T17:47:00;22.00;1.00
1680;DHT22;838;51.794;12.258;2022-09-09T17:49:29;21.90;1.00
1680;DHT22;838;51.794;12.258;2022-09-09T17:51:54;21.80;1.00
1680;DHT22;838;51.794;12.258;2022-09-09T17:54:21;21.60;1.00
1680;DHT22;838;51.794;12.258;2022-09-09T17:56:47;21.60;1.00
1680;DHT22;838;51.794;12.258;2022-09-09T17:59:14;21.70;1.00
1680;DHT22;838;51.794;12.258;2022-09-09T18:01:49;21.70;1.00
1680;DHT22;838;51.794;12.258;2022-09-09T18:04:16;21.60;1.00
1680;DHT22;838;51.794;12.258;2022-09-09T18:06:44;21.70;1.00
1680;DHT22;838;51.794;12.258;2022-09-09T18:09:13;21.80;1.00
1680;DHT22;838;51.794;12.258;2022-09-09T18:11:42;21.60;1.00
1680;DHT22;838;51.794;12.258;2022-09-09T18:14:19;21.50;1.00
1680;DHT22;838;51.794;12.258;2022-09-09T18:16:46;21.40;1.00
1680;DHT22;838;51.794;12.258;2022-09-09T18:19:14;21.30;1.00
1680;DHT22;838;51.794;12.258;2022-09-09T18:21:42;21.30;1.00
1680;DHT22;838;51.794;12.258;2022-09-09T18:24:11;21.20;1.00
1680;DHT22;838;51.794;12.258;2022-09-09T18:26:39;21.20;1.00
1680;DHT22;838;51.794;12.258;2022-09-09T18:29:11;21.10;1.00
1680;DHT22;838;51.794;12.258;2022-09-09T18:31:37;21.00;1.00
1680;DHT22;838;51.794;12.258;2022-09-09T18:34:05;21.00;1.00